createdAt,value
2023-02-15T00:01:43.864Z,17.60
2023-02-15T00:04:14.048Z,17.00
2023-02-15T00:06:41.060Z,16.92
2023-02-15T00:09:07.879Z,18.23
2023-02-15T00:11:40.534Z,16.85
2023-02-15T00:14:16.285Z,16.92
2023-02-15T00:16:44.840Z,19.73
2023-02-15T00:19:15.221Z,19.63
2023-02-15T00:21:42.348Z,17.58
2023-02-15T00:24:11.396Z,17.60
2023-02-15T00:26:40.242Z,17.02
2023-02-15T00:29:07.897Z,18.42
2023-02-15T00:31:35.159Z,16.85
2023-02-15T00:34:06.945Z,16.40
2023-02-15T00:36:33.864Z,16.80
2023-02-15T00:39:00.596Z,18.90
2023-02-15T00:41:27.441Z,17.40
2023-02-15T00:43:54.195Z,16.40
2023-02-15T00:46:20.997Z,16.98
2023-02-15T00:48:47.875Z,16.27
2023-02-15T00:51:14.870Z,18.25
2023-02-15T00:53:41.664Z,19.90
2023-02-15T00:56:08.393Z,19.33
2023-02-15T00:58:35.139Z,15.70
2023-02-15T01:01:11.285Z,15.20
2023-02-15T01:03:38.692Z,17.55
2023-02-15T01:06:06.107Z,16.55
2023-02-15T01:08:32.900Z,20.58
2023-02-15T01:11:05.899Z,18.35
2023-02-15T01:13:33.062Z,16.08
2023-02-15T01:16:00.174Z,17.48
2023-02-15T01:18:27.726Z,18.92
2023-02-15T01:20:54.476Z,18.08
2023-02-15T01:23:21.376Z,15.63
2023-02-15T01:25:48.335Z,16.27
2023-02-15T01:28:15.179Z,16.88
2023-02-15T01:30:42.227Z,16.85
2023-02-15T01:33:12.588Z,17.23
2023-02-15T01:35:39.333Z,17.35
2023-02-15T01:38:06.046Z,16.67
2023-02-15T01:40:32.727Z,15.13
2023-02-15T01:42:59.413Z,16.00
2023-02-15T01:45:32.581Z,16.17
2023-02-15T01:48:28.283Z,16.60
2023-02-15T01:50:59.920Z,17.70
2023-02-15T01:53:46.820Z,17.45
2023-02-15T01:56:20.881Z,15.73
2023-02-15T01:58:48.601Z,17.15
2023-02-15T02:01:15.362Z,17.80
2023-02-15T02:04:05.904Z,18.98
2023-02-15T02:06:34.404Z,16.10
2023-02-15T02:09:01.600Z,17.40
2023-02-15T02:11:28.506Z,18.65
2023-02-15T02:13:56.896Z,20.55
2023-02-15T02:16:29.471Z,17.80
2023-02-15T02:19:26.728Z,19.55
2023-02-15T02:22:13.706Z,18.50
2023-02-15T02:25:07.489Z,19.40
2023-02-15T02:27:47.729Z,19.33
2023-02-15T02:30:17.262Z,18.20
2023-02-15T02:33:01.894Z,15.75
2023-02-15T02:35:45.764Z,15.00
2023-02-15T02:38:33.139Z,16.60
2023-02-15T02:41:18.853Z,16.70
2023-02-15T02:43:52.371Z,20.13
2023-02-15T02:46:27.283Z,17.60
2023-02-15T02:48:54.686Z,19.70
2023-02-15T02:51:23.199Z,23.20
2023-02-15T02:53:57.741Z,18.85
2023-02-15T02:56:41.859Z,19.27
2023-02-15T02:59:14.955Z,16.25
2023-02-15T03:02:25.517Z,16.33
2023-02-15T03:04:59.589Z,17.42
2023-02-15T03:07:29.799Z,15.95
2023-02-15T03:09:59.584Z,20.92
2023-02-15T03:12:32.340Z,19.17
2023-02-15T03:15:05.073Z,17.90
2023-02-15T03:17:35.051Z,18.70
2023-02-15T03:20:10.824Z,17.73
2023-02-15T03:22:42.955Z,18.08
2023-02-15T03:25:15.425Z,17.77
2023-02-15T03:27:46.792Z,18.05
2023-02-15T03:30:16.045Z,18.92
2023-02-15T03:32:45.760Z,17.50
2023-02-15T03:35:12.530Z,17.92
2023-02-15T03:37:48.567Z,16.45
2023-02-15T03:40:42.469Z,18.98
2023-02-15T03:43:37.713Z,17.05
2023-02-15T03:46:31.074Z,17.25
2023-02-15T03:49:18.003Z,20.45
2023-02-15T03:51:48.442Z,18.13
2023-02-15T03:54:41.181Z,16.60
2023-02-15T03:57:31.591Z,16.88
2023-02-15T04:00:18.432Z,17.73
2023-02-15T04:03:00.143Z,18.50
2023-02-15T04:05:27.036Z,19.30
2023-02-15T04:07:53.764Z,18.05
2023-02-15T04:10:38.984Z,18.50
2023-02-15T04:13:05.670Z,18.00
2023-02-15T04:15:58.656Z,18.63
2023-02-15T04:18:44.255Z,14.82
2023-02-15T04:21:29.780Z,18.70
2023-02-15T04:24:15.434Z,19.73
2023-02-15T04:26:42.179Z,17.27
2023-02-15T04:29:08.968Z,18.67
2023-02-15T04:31:35.759Z,21.98
2023-02-15T04:34:02.561Z,14.35
2023-02-15T04:36:29.236Z,17.77
2023-02-15T04:38:55.958Z,21.25
2023-02-15T04:41:22.703Z,19.17
2023-02-15T04:43:49.393Z,17.55
2023-02-15T04:46:16.117Z,19.05
2023-02-15T04:48:42.935Z,19.02
2023-02-15T04:51:10.429Z,17.95
2023-02-15T04:53:37.163Z,17.73
2023-02-15T04:56:04.256Z,17.05
2023-02-15T04:58:31.054Z,18.92
2023-02-15T05:00:58.394Z,17.98
2023-02-15T05:03:25.641Z,17.67
2023-02-15T05:05:52.414Z,16.30
2023-02-15T05:08:19.188Z,18.00
2023-02-15T05:10:45.990Z,16.67
2023-02-15T05:13:12.804Z,20.17
2023-02-15T05:15:39.542Z,16.70
2023-02-15T05:18:07.359Z,17.20
2023-02-15T05:20:34.823Z,18.05
2023-02-15T05:23:01.491Z,15.60
2023-02-15T05:25:46.824Z,17.00
2023-02-15T05:28:22.706Z,16.73
2023-02-15T05:31:05.348Z,17.95
2023-02-15T05:33:32.786Z,16.25
2023-02-15T05:36:01.833Z,18.10
2023-02-15T05:38:28.958Z,14.40
2023-02-15T05:40:56.244Z,16.13
2023-02-15T05:43:23.408Z,16.58
2023-02-15T05:45:54.851Z,16.52
2023-02-15T05:48:25.423Z,18.83
2023-02-15T05:51:21.517Z,19.08
2023-02-15T05:53:48.260Z,18.17
2023-02-15T05:56:15.000Z,18.40
2023-02-15T05:58:42.757Z,17.35
2023-02-15T06:01:15.195Z,15.65
2023-02-15T06:03:42.334Z,16.80
2023-02-15T06:06:09.187Z,17.35
2023-02-15T06:08:37.169Z,15.98
2023-02-15T06:11:05.290Z,13.07
2023-02-15T06:13:32.875Z,14.02
2023-02-15T06:15:59.788Z,13.82
2023-02-15T06:18:27.061Z,14.73
2023-02-15T06:20:53.754Z,13.30
2023-02-15T06:23:20.467Z,15.68
2023-02-15T06:25:47.625Z,14.15
2023-02-15T06:28:14.561Z,13.65
2023-02-15T06:30:41.439Z,13.80
2023-02-15T06:33:08.200Z,14.10
2023-02-15T06:35:35.012Z,14.38
2023-02-15T06:38:01.748Z,14.25
2023-02-15T06:40:28.473Z,14.35
2023-02-15T06:42:55.152Z,15.25
2023-02-15T06:45:21.938Z,14.35
2023-02-15T06:47:48.729Z,15.75
2023-02-15T06:50:15.589Z,14.77
2023-02-15T06:52:42.383Z,15.88
2023-02-15T06:55:09.241Z,15.50
2023-02-15T06:57:36.042Z,13.95
2023-02-15T07:00:05.800Z,15.00
2023-02-15T07:02:32.825Z,15.30
2023-02-15T07:04:59.694Z,14.65
2023-02-15T07:07:26.525Z,14.55
2023-02-15T07:09:53.217Z,14.50
2023-02-15T07:12:38.731Z,15.65
2023-02-15T07:15:07.760Z,13.30
2023-02-15T07:17:36.236Z,13.70
2023-02-15T07:20:09.010Z,14.88
2023-02-15T07:22:37.172Z,14.00
2023-02-15T07:25:05.631Z,13.15
2023-02-15T07:27:32.950Z,15.25
2023-02-15T07:30:00.589Z,14.48
2023-02-15T07:32:32.009Z,12.90
2023-02-15T07:34:59.900Z,13.32
2023-02-15T07:37:27.378Z,14.30
2023-02-15T07:39:54.162Z,14.70
2023-02-15T07:42:22.099Z,14.30
2023-02-15T07:44:48.942Z,14.45
2023-02-15T07:47:15.788Z,20.80
2023-02-15T07:49:42.700Z,21.27
2023-02-15T07:52:09.471Z,15.55
2023-02-15T07:54:36.249Z,15.70
2023-02-15T07:57:03.304Z,16.80
2023-02-15T07:59:30.079Z,15.07
2023-02-15T08:01:57.532Z,16.67
2023-02-15T08:04:25.032Z,15.55
2023-02-15T08:06:55.370Z,14.85
2023-02-15T08:09:22.335Z,15.15
2023-02-15T08:11:49.085Z,16.23
2023-02-15T08:14:21.409Z,15.23
2023-02-15T08:16:49.647Z,15.55
2023-02-15T08:19:19.798Z,15.35
2023-02-15T08:21:50.165Z,16.48
2023-02-15T08:24:19.106Z,14.55
2023-02-15T08:26:47.656Z,14.82
2023-02-15T08:29:19.802Z,14.35
2023-02-15T08:31:47.764Z,16.45
2023-02-15T08:34:17.935Z,14.07
2023-02-15T08:36:46.137Z,14.63
2023-02-15T08:39:13.505Z,14.15
2023-02-15T08:41:42.924Z,15.90
2023-02-15T08:44:10.611Z,14.45
2023-02-15T08:46:42.532Z,13.68
2023-02-15T08:49:10.591Z,14.52
2023-02-15T08:51:39.593Z,13.40
2023-02-15T08:54:13.774Z,13.23
2023-02-15T08:56:42.479Z,13.48
2023-02-15T08:59:17.657Z,14.85
2023-02-15T09:01:45.896Z,14.65
2023-02-15T09:04:14.086Z,14.25
2023-02-15T09:06:42.523Z,13.57
2023-02-15T09:09:09.966Z,15.70
2023-02-15T09:11:39.736Z,14.80
2023-02-15T09:14:10.268Z,13.55
2023-02-15T09:16:39.069Z,14.32
2023-02-15T09:19:06.886Z,14.35
2023-02-15T09:21:36.731Z,14.02
2023-02-15T09:24:06.019Z,13.52
2023-02-15T09:26:34.993Z,14.32
2023-02-15T09:29:04.413Z,13.95
2023-02-15T09:31:34.807Z,13.30
2023-02-15T09:34:02.747Z,13.45
2023-02-15T09:36:35.107Z,14.25
2023-02-15T09:39:21.354Z,14.20
2023-02-15T09:42:20.051Z,12.90
2023-02-15T09:45:13.706Z,13.50
2023-02-15T09:48:05.833Z,14.23
2023-02-15T09:50:57.279Z,14.73
2023-02-15T09:53:35.294Z,14.18
2023-02-15T09:56:39.743Z,13.32
2023-02-15T09:59:25.621Z,14.07
2023-02-15T10:01:58.474Z,14.85
2023-02-15T10:04:41.521Z,15.55
2023-02-15T10:07:43.946Z,13.63
2023-02-15T10:10:49.490Z,12.68
2023-02-15T10:13:47.555Z,15.68
2023-02-15T10:16:29.207Z,13.07
2023-02-15T10:19:06.260Z,14.13
2023-02-15T10:21:58.713Z,13.90
2023-02-15T10:24:48.899Z,14.35
2023-02-15T10:27:22.774Z,14.25
2023-02-15T10:30:02.098Z,13.93
2023-02-15T10:32:31.610Z,14.65
2023-02-15T10:35:23.104Z,15.07
2023-02-15T10:38:05.205Z,12.90
2023-02-15T10:41:03.475Z,14.68
2023-02-15T10:44:09.034Z,13.60
2023-02-15T10:46:58.687Z,13.60
2023-02-15T10:49:40.188Z,13.55
2023-02-15T10:52:09.708Z,13.77
2023-02-15T10:55:11.759Z,14.00
2023-02-15T10:58:06.224Z,14.07
2023-02-15T11:00:40.151Z,13.95
2023-02-15T11:03:30.196Z,13.98
2023-02-15T11:06:16.137Z,12.85
2023-02-15T11:08:53.140Z,13.60
2023-02-15T11:11:28.572Z,13.13
2023-02-15T11:14:01.444Z,12.02
2023-02-15T11:16:38.446Z,12.35
2023-02-15T11:19:36.860Z,13.50
2023-02-15T11:22:06.531Z,13.55
2023-02-15T11:24:41.234Z,14.13
2023-02-15T11:27:17.890Z,12.38
2023-02-15T11:30:10.426Z,12.70
2023-02-15T11:32:41.423Z,12.13
2023-02-15T11:35:10.938Z,11.13
2023-02-15T11:37:55.158Z,12.13
2023-02-15T11:40:24.127Z,12.70
2023-02-15T11:42:53.965Z,11.20
2023-02-15T11:45:32.502Z,12.30
2023-02-15T11:48:01.040Z,11.57
2023-02-15T11:50:33.570Z,12.53
2023-02-15T11:53:07.060Z,11.33
2023-02-15T11:55:36.058Z,11.30
2023-02-15T11:58:08.116Z,13.23
2023-02-15T12:00:46.700Z,12.30
2023-02-15T12:03:24.337Z,11.43
2023-02-15T12:05:58.138Z,10.83
2023-02-15T12:08:38.056Z,10.13
2023-02-15T12:11:08.756Z,10.67
2023-02-15T12:13:35.552Z,10.93
2023-02-15T12:16:11.353Z,10.60
2023-02-15T12:18:41.457Z,9.37
2023-02-15T12:21:12.804Z,10.53
2023-02-15T12:23:49.193Z,10.90
2023-02-15T12:26:24.049Z,10.70
2023-02-15T12:28:53.001Z,10.97
2023-02-15T12:31:32.924Z,11.10
2023-02-15T12:34:03.545Z,10.27
2023-02-15T12:36:55.358Z,11.70
2023-02-15T12:39:28.462Z,9.83
2023-02-15T12:41:55.256Z,10.63
2023-02-15T12:44:29.837Z,11.43
2023-02-15T12:47:06.738Z,10.50
2023-02-15T12:49:38.072Z,10.10
2023-02-15T12:52:21.029Z,11.13
2023-02-15T12:54:49.046Z,10.83
2023-02-15T12:57:29.286Z,11.40
2023-02-15T12:59:57.465Z,12.10
2023-02-15T13:02:52.441Z,10.80
2023-02-15T13:05:28.535Z,11.77
2023-02-15T13:07:59.124Z,11.90
2023-02-15T13:10:30.695Z,11.90
2023-02-15T13:12:58.967Z,11.27
2023-02-15T13:15:38.323Z,10.87
2023-02-15T13:18:11.406Z,11.80
2023-02-15T13:20:41.588Z,11.13
2023-02-15T13:23:30.052Z,12.07
2023-02-15T13:26:03.854Z,10.80
2023-02-15T13:28:41.891Z,11.33
2023-02-15T13:31:33.688Z,11.17
2023-02-15T13:34:29.375Z,11.97
2023-02-15T13:37:17.493Z,11.67
2023-02-15T13:40:08.880Z,11.20
2023-02-15T13:42:55.825Z,11.63
2023-02-15T13:45:24.326Z,11.33
2023-02-15T13:47:54.076Z,11.97
2023-02-15T13:50:57.956Z,12.13
2023-02-15T13:53:53.019Z,12.13
2023-02-15T13:56:49.007Z,11.73
2023-02-15T13:59:41.426Z,12.80
2023-02-15T14:02:23.048Z,11.20
2023-02-15T14:05:14.703Z,12.20
2023-02-15T14:08:06.151Z,12.43
2023-02-15T14:10:54.476Z,12.20
2023-02-15T14:13:35.849Z,11.93
2023-02-15T14:16:29.956Z,12.50
2023-02-15T14:19:10.101Z,12.43
2023-02-15T14:21:59.073Z,13.13
2023-02-15T14:24:47.394Z,12.90
2023-02-15T14:28:00.585Z,13.50
2023-02-15T14:30:34.116Z,14.00
2023-02-15T14:33:43.743Z,13.13
2023-02-15T14:36:17.256Z,12.57
2023-02-15T14:38:55.420Z,15.20
2023-02-15T14:41:33.496Z,16.17
2023-02-15T14:44:14.328Z,15.47
2023-02-15T14:46:55.924Z,17.27
2023-02-15T14:49:30.863Z,17.03
2023-02-15T14:52:00.853Z,18.07
2023-02-15T14:54:30.370Z,16.97
2023-02-15T14:57:03.361Z,15.93
2023-02-15T14:59:47.155Z,18.40
2023-02-15T15:02:19.692Z,17.93
2023-02-15T15:05:11.239Z,19.10
2023-02-15T15:07:49.200Z,18.50
2023-02-15T15:10:18.884Z,17.70
2023-02-15T15:12:58.410Z,17.97
2023-02-15T15:15:28.227Z,16.50
2023-02-15T15:17:57.984Z,19.40
2023-02-15T15:20:28.051Z,17.70
2023-02-15T15:23:16.489Z,17.60
2023-02-15T15:26:18.246Z,19.40
2023-02-15T15:28:44.958Z,17.17
2023-02-15T15:31:21.382Z,17.83
2023-02-15T15:34:19.880Z,20.00
2023-02-15T15:37:05.981Z,20.00
2023-02-15T15:39:47.731Z,20.10
2023-02-15T15:42:29.383Z,19.80
2023-02-15T15:45:12.059Z,18.80
2023-02-15T15:48:07.766Z,20.93
2023-02-15T15:50:35.296Z,22.53
2023-02-15T15:53:04.210Z,20.10
2023-02-15T15:55:34.646Z,19.27
2023-02-15T15:58:05.137Z,21.83
2023-02-15T16:00:52.229Z,20.43
2023-02-15T16:03:23.552Z,33.77
2023-02-15T16:05:55.293Z,27.60
2023-02-15T16:08:34.570Z,30.53
2023-02-15T16:11:11.764Z,35.80
2023-02-15T16:13:44.649Z,27.07
2023-02-15T16:16:14.140Z,22.93
2023-02-15T16:18:43.393Z,21.10
2023-02-15T16:21:19.260Z,22.20
2023-02-15T16:24:12.168Z,19.97
2023-02-15T16:27:05.154Z,21.53
2023-02-15T16:29:34.166Z,20.07
2023-02-15T16:32:05.189Z,19.90
2023-02-15T16:34:33.657Z,20.30
2023-02-15T16:37:22.957Z,19.47
2023-02-15T16:39:50.118Z,18.93
2023-02-15T16:42:18.436Z,16.30
2023-02-15T16:44:49.358Z,15.27
2023-02-15T16:47:29.790Z,16.00
2023-02-15T16:50:03.057Z,16.30
2023-02-15T16:52:30.740Z,15.37
2023-02-15T16:55:04.324Z,16.23
2023-02-15T16:57:36.237Z,16.20
2023-02-15T17:00:09.201Z,17.23
2023-02-15T17:02:55.967Z,17.63
2023-02-15T17:05:23.883Z,17.87
2023-02-15T17:08:18.271Z,19.60
2023-02-15T17:11:02.704Z,17.90
2023-02-15T17:13:30.373Z,16.93
2023-02-15T17:16:03.334Z,18.27
2023-02-15T17:18:33.641Z,17.88
2023-02-15T17:21:09.399Z,18.03
2023-02-15T17:23:45.806Z,18.60
2023-02-15T17:26:17.161Z,19.40
2023-02-15T17:28:51.709Z,19.80
2023-02-15T17:31:20.839Z,18.57
2023-02-15T17:33:48.637Z,18.90
2023-02-15T17:36:23.582Z,19.77
2023-02-15T17:38:59.294Z,19.08
2023-02-15T17:41:28.641Z,18.75
2023-02-15T17:43:55.705Z,17.40
2023-02-15T17:46:22.875Z,18.20
2023-02-15T17:48:51.815Z,19.88
2023-02-15T17:51:20.470Z,19.38
2023-02-15T17:54:06.853Z,17.42
2023-02-15T17:56:34.369Z,18.40
2023-02-15T17:59:01.162Z,19.48
2023-02-15T18:01:46.434Z,23.08
2023-02-15T18:04:33.549Z,21.48
2023-02-15T18:07:19.115Z,20.45
2023-02-15T18:10:04.556Z,21.52
2023-02-15T18:12:33.890Z,19.48
2023-02-15T18:15:03.735Z,20.27
2023-02-15T18:17:46.091Z,17.88
2023-02-15T18:20:20.424Z,20.13
2023-02-15T18:22:47.385Z,17.85
2023-02-15T18:25:16.753Z,20.05
2023-02-15T18:27:43.680Z,20.15
2023-02-15T18:30:16.093Z,21.00
2023-02-15T18:32:43.619Z,18.50
2023-02-15T18:35:19.463Z,21.98
2023-02-15T18:37:47.245Z,21.45
2023-02-15T18:40:27.252Z,20.80
2023-02-15T18:42:54.611Z,20.02
2023-02-15T18:45:32.910Z,20.50
2023-02-15T18:48:00.030Z,21.00
2023-02-15T18:50:31.232Z,23.25
2023-02-15T18:52:57.974Z,23.08
2023-02-15T18:55:28.758Z,23.42
2023-02-15T18:57:56.989Z,23.23
2023-02-15T19:00:29.237Z,22.55
2023-02-15T19:02:57.217Z,25.52
2023-02-15T19:05:27.423Z,23.98
2023-02-15T19:07:54.926Z,22.52
2023-02-15T19:10:25.091Z,23.63
2023-02-15T19:12:52.962Z,23.77
2023-02-15T19:15:23.493Z,24.85
2023-02-15T19:17:51.171Z,24.88
2023-02-15T19:20:19.500Z,22.02
2023-02-15T19:22:49.123Z,22.33
2023-02-15T19:25:21.013Z,23.63
2023-02-15T19:27:48.211Z,26.33
2023-02-15T19:30:24.627Z,25.42
2023-02-15T19:32:51.413Z,27.50
2023-02-15T19:35:21.827Z,26.27
2023-02-15T19:38:00.309Z,26.73
2023-02-15T19:40:33.196Z,30.50
2023-02-15T19:43:00.239Z,29.13
2023-02-15T19:45:28.857Z,28.33
2023-02-15T19:47:56.362Z,33.53
2023-02-15T19:50:25.892Z,31.42
2023-02-15T19:52:53.040Z,32.95
2023-02-15T19:55:34.202Z,32.30
2023-02-15T19:58:02.319Z,33.10
2023-02-15T20:00:32.023Z,31.88
2023-02-15T20:02:59.790Z,35.08
2023-02-15T20:05:31.246Z,34.22
2023-02-15T20:07:58.446Z,34.42
2023-02-15T20:10:29.006Z,30.90
2023-02-15T20:12:56.233Z,31.05
2023-02-15T20:15:31.906Z,29.02
2023-02-15T20:18:00.104Z,30.23
2023-02-15T20:20:42.875Z,27.67
2023-02-15T20:23:38.987Z,30.35
2023-02-15T20:26:18.324Z,30.15
2023-02-15T20:28:46.417Z,28.17
2023-02-15T20:31:17.723Z,26.10
2023-02-15T20:33:44.576Z,27.35
2023-02-15T20:36:16.578Z,27.77
2023-02-15T20:38:44.194Z,28.40
2023-02-15T20:41:35.031Z,30.67
2023-02-15T20:44:13.896Z,29.50
2023-02-15T20:46:40.660Z,27.50
2023-02-15T20:49:07.410Z,27.80
2023-02-15T20:51:34.286Z,27.63
2023-02-15T20:54:01.461Z,25.98
2023-02-15T20:56:28.236Z,27.33
2023-02-15T20:58:55.066Z,28.88
2023-02-15T21:01:21.901Z,26.33
2023-02-15T21:03:48.901Z,27.30
2023-02-15T21:06:16.531Z,26.98
2023-02-15T21:08:43.818Z,27.88
2023-02-15T21:11:22.149Z,25.80
2023-02-15T21:13:50.807Z,26.08
2023-02-15T21:16:17.747Z,25.65
2023-02-15T21:18:44.567Z,25.15
2023-02-15T21:21:22.292Z,25.73
2023-02-15T21:23:49.480Z,24.90
2023-02-15T21:26:19.927Z,25.42
2023-02-15T21:28:47.342Z,26.90
2023-02-15T21:31:21.012Z,26.10
2023-02-15T21:33:47.824Z,25.60
2023-02-15T21:36:24.201Z,28.90
2023-02-15T21:38:51.223Z,28.20
2023-02-15T21:41:41.243Z,28.48
2023-02-15T21:44:41.391Z,23.95
2023-02-15T21:47:40.249Z,25.50
2023-02-15T21:50:29.387Z,27.95
2023-02-15T21:52:56.458Z,29.00
2023-02-15T21:55:23.218Z,30.17
2023-02-15T21:57:49.932Z,29.88
2023-02-15T22:00:22.045Z,29.20
2023-02-15T22:02:51.890Z,38.92
2023-02-15T22:05:26.794Z,29.52
2023-02-15T22:07:53.578Z,23.55
2023-02-15T22:10:22.625Z,22.13
2023-02-15T22:12:50.699Z,22.15
2023-02-15T22:15:23.228Z,19.25
2023-02-15T22:17:51.087Z,19.08
2023-02-15T22:20:20.785Z,16.80
2023-02-15T22:22:48.143Z,18.65
2023-02-15T22:25:17.140Z,18.50
2023-02-15T22:27:45.742Z,19.40
2023-02-15T22:30:21.431Z,19.17
2023-02-15T22:32:48.842Z,17.58
2023-02-15T22:35:23.137Z,18.35
2023-02-15T22:37:49.895Z,19.42
2023-02-15T22:40:18.313Z,19.48
2023-02-15T22:42:52.733Z,21.20
2023-02-15T22:45:25.122Z,18.77
2023-02-15T22:47:54.248Z,17.90
2023-02-15T22:50:32.204Z,18.92
2023-02-15T22:53:03.559Z,18.42
2023-02-15T22:55:36.923Z,17.40
2023-02-15T22:58:04.328Z,18.45
2023-02-15T23:00:40.579Z,17.23
2023-02-15T23:03:18.565Z,16.50
2023-02-15T23:05:46.938Z,17.98
2023-02-15T23:08:13.836Z,18.00
2023-02-15T23:10:42.471Z,16.30
2023-02-15T23:13:25.285Z,16.33
2023-02-15T23:15:56.757Z,21.00
2023-02-15T23:18:41.747Z,18.95
2023-02-15T23:21:31.152Z,17.45
2023-02-15T23:24:09.740Z,16.98
2023-02-15T23:26:36.474Z,16.38
2023-02-15T23:29:04.016Z,18.95
2023-02-15T23:31:33.457Z,18.33
2023-02-15T23:34:02.383Z,17.42
2023-02-15T23:36:30.686Z,16.90
2023-02-15T23:39:25.360Z,14.95
2023-02-15T23:41:52.209Z,14.32
2023-02-15T23:44:19.380Z,14.93
2023-02-15T23:46:47.319Z,15.27
2023-02-15T23:49:16.647Z,22.10
2023-02-15T23:51:46.074Z,24.10
2023-02-15T23:54:14.295Z,20.13
2023-02-15T23:56:42.979Z,17.50
2023-02-15T23:59:20.318Z,15.00
